Terminal Aerodrome Forecast
Issued by NWS Tulsa, OK

Home | Current Version | Previous Version | Text Only | Print | Product List | Glossary On
Versions: 1 2 3 4 5 6 7 8 9 10 11 12 13 14
000
FTUS44 KTSA 251722
TAFFSM
TAF
KFSM 251722Z 2518/2618 01009KT 4SM -RA BR OVC080
      TEMPO 2518/2522 2SM -RA BR OVC025
     FM252200 30005KT P6SM -SHRA OVC025
     FM260300 30010KT P6SM OVC015=

USA.gov is the U.S. government's official web portal to all federal, state and local government web resources and services.